Terminal Aerodrome Forecast
Issued by NWS Portland, OR

Home | Current Version | Previous Version | Text Only | Print | Product List | Glossary On
Versions: 1 2 3 4 5 6 7 8 9 10 11 12 13 14 15 16 17 18 19 20 21 22 23 24 25 26 27 28 29 30 31 32 33 34 35 36
000
FTUS46 KPQR 271725
TAFHIO
TAF
KHIO 271725Z 2718/2818 VRB03KT P6SM BKN015 BKN250
     FM272000 09007KT P6SM SCT250
     FM280300 VRB04KT P6SM SCT250
     FM280900 16006KT P6SM SCT025 OVC050
     FM281300 18007KT P6SM -RA SCT025 OVC050=

USA.gov is the U.S. government's official web portal to all federal, state and local government web resources and services.